sensor_id;sensor_type;location;lat;lon;timestamp;temperature;humidity
2653;DHT22;1336;48.692;9.144;2023-11-21T06:00:41;10.10;97.20
2653;DHT22;1336;48.692;9.144;2023-11-21T06:01:32;10.00;97.20
2653;DHT22;1336;48.692;9.144;2023-11-21T06:02:25;10.00;97.20
2653;DHT22;1336;48.692;9.144;2023-11-21T06:03:16;10.00;97.20
2653;DHT22;1336;48.692;9.144;2023-11-21T06:04:08;9.90;97.20
2653;DHT22;1336;48.692;9.144;2023-11-21T06:04:59;9.90;97.20
2653;DHT22;1336;48.692;9.144;2023-11-21T06:05:50;9.90;97.20
2653;DHT22;1336;48.692;9.144;2023-11-21T06:06:42;9.90;97.20
2653;DHT22;1336;48.692;9.144;2023-11-21T06:07:33;9.90;97.20
2653;DHT22;1336;48.692;9.144;2023-11-21T06:08:24;9.90;97.20
2653;DHT22;1336;48.692;9.144;2023-11-21T06:09:16;9.90;97.20
2653;DHT22;1336;48.692;9.144;2023-11-21T06:10:08;9.80;97.20
2653;DHT22;1336;48.692;9.144;2023-11-21T06:10:59;9.80;97.20
2653;DHT22;1336;48.692;9.144;2023-11-21T06:11:51;9.80;97.20
2653;DHT22;1336;48.692;9.144;2023-11-21T06:12:42;9.80;97.20
2653;DHT22;1336;48.692;9.144;2023-11-21T06:13:34;9.80;97.20
2653;DHT22;1336;48.692;9.144;2023-11-21T06:14:24;9.80;97.20
2653;DHT22;1336;48.692;9.144;2023-11-21T06:15:16;9.80;97.20
2653;DHT22;1336;48.692;9.144;2023-11-21T06:16:10;9.80;97.20
2653;DHT22;1336;48.692;9.144;2023-11-21T06:17:05;9.80;97.20
2653;DHT22;1336;48.692;9.144;2023-11-21T06:17:55;9.80;97.20
2653;DHT22;1336;48.692;9.144;2023-11-21T06:18:46;9.80;97.20
2653;DHT22;1336;48.692;9.144;2023-11-21T06:19:38;9.80;97.20
2653;DHT22;1336;48.692;9.144;2023-11-21T06:20:29;9.80;97.20
2653;DHT22;1336;48.692;9.144;2023-11-21T06:21:19;9.80;97.20
2653;DHT22;1336;48.692;9.144;2023-11-21T06:22:11;9.80;97.20
2653;DHT22;1336;48.692;9.144;2023-11-21T06:23:02;9.80;97.20
2653;DHT22;1336;48.692;9.144;2023-11-21T06:23:54;9.80;97.20
2653;DHT22;1336;48.692;9.144;2023-11-21T06:24:47;9.80;97.20
2653;DHT22;1336;48.692;9.144;2023-11-21T06:25:38;9.80;97.20
2653;DHT22;1336;48.692;9.144;2023-11-21T06:26:29;9.80;97.20
2653;DHT22;1336;48.692;9.144;2023-11-21T06:27:22;9.80;97.20
2653;DHT22;1336;48.692;9.144;2023-11-21T06:28:15;9.80;97.20
2653;DHT22;1336;48.692;9.144;2023-11-21T06:29:08;9.80;97.20
2653;DHT22;1336;48.692;9.144;2023-11-21T06:29:59;9.80;97.20
2653;DHT22;1336;48.692;9.144;2023-11-21T06:30:50;9.80;97.20
2653;DHT22;1336;48.692;9.144;2023-11-21T06:31:42;9.90;97.20
2653;DHT22;1336;48.692;9.144;2023-11-21T06:32:34;9.90;97.20
2653;DHT22;1336;48.692;9.144;2023-11-21T06:33:26;9.90;97.20
2653;DHT22;1336;48.692;9.144;2023-11-21T06:34:18;9.90;97.20
2653;DHT22;1336;48.692;9.144;2023-11-21T06:35:08;9.90;97.20
2653;DHT22;1336;48.692;9.144;2023-11-21T06:36:00;9.90;97.20
2653;DHT22;1336;48.692;9.144;2023-11-21T06:36:53;9.90;97.20
2653;DHT22;1336;48.692;9.144;2023-11-21T06:37:43;9.90;97.20
2653;DHT22;1336;48.692;9.144;2023-11-21T06:38:38;9.90;97.20
2653;DHT22;1336;48.692;9.144;2023-11-21T06:39:29;10.00;97.20
2653;DHT22;1336;48.692;9.144;2023-11-21T06:40:20;10.00;97.20
2653;DHT22;1336;48.692;9.144;2023-11-21T06:41:12;10.00;97.20
2653;DHT22;1336;48.692;9.144;2023-11-21T06:42:06;10.00;97.20
2653;DHT22;1336;48.692;9.144;2023-11-21T06:42:56;10.00;97.20
2653;DHT22;1336;48.692;9.144;2023-11-21T06:43:49;10.00;97.20
2653;DHT22;1336;48.692;9.144;2023-11-21T06:44:41;10.00;97.20
2653;DHT22;1336;48.692;9.144;2023-11-21T06:45:32;10.00;97.20
2653;DHT22;1336;48.692;9.144;2023-11-21T06:46:24;10.00;97.20
2653;DHT22;1336;48.692;9.144;2023-11-21T06:47:16;10.00;97.20
2653;DHT22;1336;48.692;9.144;2023-11-21T06:48:07;10.00;97.20
2653;DHT22;1336;48.692;9.144;2023-11-21T06:48:59;10.00;97.20
2653;DHT22;1336;48.692;9.144;2023-11-21T06:49:49;10.00;97.20
2653;DHT22;1336;48.692;9.144;2023-11-21T06:50:41;10.00;97.20
2653;DHT22;1336;48.692;9.144;2023-11-21T06:51:33;10.00;97.20
2653;DHT22;1336;48.692;9.144;2023-11-21T06:52:23;10.00;97.20
2653;DHT22;1336;48.692;9.144;2023-11-21T06:53:14;10.00;97.20
2653;DHT22;1336;48.692;9.144;2023-11-21T06:54:06;10.00;97.20
2653;DHT22;1336;48.692;9.144;2023-11-21T06:54:57;10.00;97.20
2653;DHT22;1336;48.692;9.144;2023-11-21T06:55:47;10.00;97.20
2653;DHT22;1336;48.692;9.144;2023-11-21T06:56:39;10.00;97.20
2653;DHT22;1336;48.692;9.144;2023-11-21T06:57:31;10.00;97.20
2653;DHT22;1336;48.692;9.144;2023-11-21T06:58:21;10.00;97.20
2653;DHT22;1336;48.692;9.144;2023-11-21T06:59:13;10.00;97.20
2653;DHT22;1336;48.692;9.144;2023-11-21T07:00:05;10.10;97.20
2653;DHT22;1336;48.692;9.144;2023-11-21T07:00:56;10.10;97.20
2653;DHT22;1336;48.692;9.144;2023-11-21T07:01:49;10.10;97.20
2653;DHT22;1336;48.692;9.144;2023-11-21T07:02:41;10.10;97.20
2653;DHT22;1336;48.692;9.144;2023-11-21T07:03:32;10.10;97.20
2653;DHT22;1336;48.692;9.144;2023-11-21T07:04:23;10.10;97.20
2653;DHT22;1336;48.692;9.144;2023-11-21T07:05:16;10.10;97.20
2653;DHT22;1336;48.692;9.144;2023-11-21T07:06:11;10.10;97.20
2653;DHT22;1336;48.692;9.144;2023-11-21T07:07:02;10.10;97.20
2653;DHT22;1336;48.692;9.144;2023-11-21T07:07:53;10.10;97.20
2653;DHT22;1336;48.692;9.144;2023-11-21T07:08:45;10.10;97.20
2653;DHT22;1336;48.692;9.144;2023-11-21T07:09:36;10.10;97.20
2653;DHT22;1336;48.692;9.144;2023-11-21T07:10:27;10.20;97.20
2653;DHT22;1336;48.692;9.144;2023-11-21T07:11:18;10.20;97.20
2653;DHT22;1336;48.692;9.144;2023-11-21T07:12:09;10.20;97.20
2653;DHT22;1336;48.692;9.144;2023-11-21T07:13:01;10.20;97.20
2653;DHT22;1336;48.692;9.144;2023-11-21T07:13:53;10.20;97.20
2653;DHT22;1336;48.692;9.144;2023-11-21T07:14:43;10.20;97.20
2653;DHT22;1336;48.692;9.144;2023-11-21T07:15:35;10.20;97.20
2653;DHT22;1336;48.692;9.144;2023-11-21T07:16:26;10.20;97.20
2653;DHT22;1336;48.692;9.144;2023-11-21T07:17:17;10.20;97.20
2653;DHT22;1336;48.692;9.144;2023-11-21T07:18:09;10.30;97.20
2653;DHT22;1336;48.692;9.144;2023-11-21T07:19:02;10.30;97.20
2653;DHT22;1336;48.692;9.144;2023-11-21T07:19:52;10.30;97.20
2653;DHT22;1336;48.692;9.144;2023-11-21T07:20:43;10.30;97.20
2653;DHT22;1336;48.692;9.144;2023-11-21T07:21:35;10.30;97.20
2653;DHT22;1336;48.692;9.144;2023-11-21T07:22:26;10.30;97.20
2653;DHT22;1336;48.692;9.144;2023-11-21T07:23:17;10.30;97.20
2653;DHT22;1336;48.692;9.144;2023-11-21T07:24:09;10.30;97.20
2653;DHT22;1336;48.692;9.144;2023-11-21T07:25:00;10.30;97.20
2653;DHT22;1336;48.692;9.144;2023-11-21T07:25:50;10.30;97.20
2653;DHT22;1336;48.692;9.144;2023-11-21T07:26:43;10.30;97.20
2653;DHT22;1336;48.692;9.144;2023-11-21T07:27:33;10.30;97.20
2653;DHT22;1336;48.692;9.144;2023-11-21T07:28:26;10.40;97.20
2653;DHT22;1336;48.692;9.144;2023-11-21T07:29:17;10.40;97.20
2653;DHT22;1336;48.692;9.144;2023-11-21T07:30:09;10.40;97.20
2653;DHT22;1336;48.692;9.144;2023-11-21T07:31:00;10.40;97.20
2653;DHT22;1336;48.692;9.144;2023-11-21T07:31:52;10.40;97.20
2653;DHT22;1336;48.692;9.144;2023-11-21T07:32:43;10.40;97.20
2653;DHT22;1336;48.692;9.144;2023-11-21T07:33:38;10.40;97.20
2653;DHT22;1336;48.692;9.144;2023-11-21T07:34:30;10.40;97.20
2653;DHT22;1336;48.692;9.144;2023-11-21T07:35:21;10.40;97.20
2653;DHT22;1336;48.692;9.144;2023-11-21T07:36:12;10.50;97.20
2653;DHT22;1336;48.692;9.144;2023-11-21T07:37:03;10.50;97.20
2653;DHT22;1336;48.692;9.144;2023-11-21T07:37:54;10.50;97.20
2653;DHT22;1336;48.692;9.144;2023-11-21T07:38:46;10.50;97.20
2653;DHT22;1336;48.692;9.144;2023-11-21T07:39:37;10.50;97.20
2653;DHT22;1336;48.692;9.144;2023-11-21T07:40:32;10.50;97.20
2653;DHT22;1336;48.692;9.144;2023-11-21T07:41:23;10.50;97.20
2653;DHT22;1336;48.692;9.144;2023-11-21T07:42:13;10.50;97.20
2653;DHT22;1336;48.692;9.144;2023-11-21T07:43:05;10.50;97.20
2653;DHT22;1336;48.692;9.144;2023-11-21T07:43:56;10.60;97.20
2653;DHT22;1336;48.692;9.144;2023-11-21T07:44:47;10.60;97.20
2653;DHT22;1336;48.692;9.144;2023-11-21T07:45:38;10.60;97.20
2653;DHT22;1336;48.692;9.144;2023-11-21T07:46:29;10.60;97.20
2653;DHT22;1336;48.692;9.144;2023-11-21T07:47:21;10.60;97.20
2653;DHT22;1336;48.692;9.144;2023-11-21T07:48:11;10.60;97.20
2653;DHT22;1336;48.692;9.144;2023-11-21T07:49:03;10.70;97.20
2653;DHT22;1336;48.692;9.144;2023-11-21T07:49:55;10.70;97.20
2653;DHT22;1336;48.692;9.144;2023-11-21T07:50:46;10.70;97.20
2653;DHT22;1336;48.692;9.144;2023-11-21T07:51:38;10.70;97.20
2653;DHT22;1336;48.692;9.144;2023-11-21T07:52:29;10.70;97.20
2653;DHT22;1336;48.692;9.144;2023-11-21T07:53:20;10.70;97.20
2653;DHT22;1336;48.692;9.144;2023-11-21T07:54:12;10.70;97.20
2653;DHT22;1336;48.692;9.144;2023-11-21T07:55:03;10.70;97.20
2653;DHT22;1336;48.692;9.144;2023-11-21T07:55:55;10.70;97.20
2653;DHT22;1336;48.692;9.144;2023-11-21T07:56:46;10.70;97.20
2653;DHT22;1336;48.692;9.144;2023-11-21T07:57:37;10.70;97.20
2653;DHT22;1336;48.692;9.144;2023-11-21T07:58:29;10.70;97.20
2653;DHT22;1336;48.692;9.144;2023-11-21T07:59:19;10.70;97.20
2653;DHT22;1336;48.692;9.144;2023-11-21T08:00:11;10.70;97.20
2653;DHT22;1336;48.692;9.144;2023-11-21T08:01:05;10.70;97.20
2653;DHT22;1336;48.692;9.144;2023-11-21T08:01:57;10.70;97.20
2653;DHT22;1336;48.692;9.144;2023-11-21T08:02:47;10.70;97.20
2653;DHT22;1336;48.692;9.144;2023-11-21T08:03:39;10.70;97.20
2653;DHT22;1336;48.692;9.144;2023-11-21T08:04:31;10.70;97.20
2653;DHT22;1336;48.692;9.144;2023-11-21T08:05:23;10.70;97.20
2653;DHT22;1336;48.692;9.144;2023-11-21T08:06:14;10.70;97.20
2653;DHT22;1336;48.692;9.144;2023-11-21T08:07:05;10.80;97.20
2653;DHT22;1336;48.692;9.144;2023-11-21T08:07:56;10.80;97.20
2653;DHT22;1336;48.692;9.144;2023-11-21T08:08:47;10.80;97.20
2653;DHT22;1336;48.692;9.144;2023-11-21T08:09:38;10.80;97.20
2653;DHT22;1336;48.692;9.144;2023-11-21T08:10:29;10.80;97.20
2653;DHT22;1336;48.692;9.144;2023-11-21T08:11:20;10.80;97.20
2653;DHT22;1336;48.692;9.144;2023-11-21T08:12:12;10.80;97.20
2653;DHT22;1336;48.692;9.144;2023-11-21T08:13:03;10.80;97.20
2653;DHT22;1336;48.692;9.144;2023-11-21T08:13:54;10.80;97.20
2653;DHT22;1336;48.692;9.144;2023-11-21T08:14:46;10.80;97.20
2653;DHT22;1336;48.692;9.144;2023-11-21T08:15:36;10.80;97.20
2653;DHT22;1336;48.692;9.144;2023-11-21T08:16:27;10.80;97.20
2653;DHT22;1336;48.692;9.144;2023-11-21T08:17:19;10.80;97.20
2653;DHT22;1336;48.692;9.144;2023-11-21T08:18:10;10.80;97.20
2653;DHT22;1336;48.692;9.144;2023-11-21T08:19:03;10.80;97.20
2653;DHT22;1336;48.692;9.144;2023-11-21T08:19:55;10.80;97.20
2653;DHT22;1336;48.692;9.144;2023-11-21T08:20:48;10.80;97.20
2653;DHT22;1336;48.692;9.144;2023-11-21T08:21:39;10.80;97.20
2653;DHT22;1336;48.692;9.144;2023-11-21T08:22:31;10.90;97.20
2653;DHT22;1336;48.692;9.144;2023-11-21T08:23:22;10.90;97.20
2653;DHT22;1336;48.692;9.144;2023-11-21T08:24:15;10.90;97.20
2653;DHT22;1336;48.692;9.144;2023-11-21T08:25:08;10.90;97.20
2653;DHT22;1336;48.692;9.144;2023-11-21T08:25:59;11.00;97.20
2653;DHT22;1336;48.692;9.144;2023-11-21T08:26:50;11.00;97.20
2653;DHT22;1336;48.692;9.144;2023-11-21T08:27:42;11.00;97.20
2653;DHT22;1336;48.692;9.144;2023-11-21T08:28:33;11.00;97.20
2653;DHT22;1336;48.692;9.144;2023-11-21T08:29:24;11.00;97.20
2653;DHT22;1336;48.692;9.144;2023-11-21T08:30:16;11.10;97.20
2653;DHT22;1336;48.692;9.144;2023-11-21T08:31:07;11.10;97.20
2653;DHT22;1336;48.692;9.144;2023-11-21T08:31:59;11.10;97.20
2653;DHT22;1336;48.692;9.144;2023-11-21T08:32:50;11.10;97.20
2653;DHT22;1336;48.692;9.144;2023-11-21T08:33:42;11.10;97.20
2653;DHT22;1336;48.692;9.144;2023-11-21T08:34:34;11.20;97.20
2653;DHT22;1336;48.692;9.144;2023-11-21T08:35:26;11.20;97.20
2653;DHT22;1336;48.692;9.144;2023-11-21T08:36:16;11.20;97.20
2653;DHT22;1336;48.692;9.144;2023-11-21T08:37:08;11.20;97.20
2653;DHT22;1336;48.692;9.144;2023-11-21T08:37:59;11.20;97.20
2653;DHT22;1336;48.692;9.144;2023-11-21T08:38:50;11.20;97.20
2653;DHT22;1336;48.692;9.144;2023-11-21T08:39:43;11.20;97.20
2653;DHT22;1336;48.692;9.144;2023-11-21T08:40:35;11.30;97.20
2653;DHT22;1336;48.692;9.144;2023-11-21T08:41:26;11.30;97.20
2653;DHT22;1336;48.692;9.144;2023-11-21T08:42:18;11.30;97.20
2653;DHT22;1336;48.692;9.144;2023-11-21T08:43:10;11.30;97.20
2653;DHT22;1336;48.692;9.144;2023-11-21T08:44:03;11.20;97.20
2653;DHT22;1336;48.692;9.144;2023-11-21T08:44:57;11.20;97.20
2653;DHT22;1336;48.692;9.144;2023-11-21T08:45:48;11.20;97.20
2653;DHT22;1336;48.692;9.144;2023-11-21T08:46:40;11.20;97.20
2653;DHT22;1336;48.692;9.144;2023-11-21T08:47:32;11.20;97.20
2653;DHT22;1336;48.692;9.144;2023-11-21T08:48:23;11.20;97.20
2653;DHT22;1336;48.692;9.144;2023-11-21T08:49:14;11.20;97.20
2653;DHT22;1336;48.692;9.144;2023-11-21T08:50:07;11.20;97.20
2653;DHT22;1336;48.692;9.144;2023-11-21T08:51:00;11.20;97.20
2653;DHT22;1336;48.692;9.144;2023-11-21T08:51:51;11.30;97.20
2653;DHT22;1336;48.692;9.144;2023-11-21T08:52:45;11.30;97.20
2653;DHT22;1336;48.692;9.144;2023-11-21T08:53:36;11.30;97.20
2653;DHT22;1336;48.692;9.144;2023-11-21T08:54:28;11.30;97.20
2653;DHT22;1336;48.692;9.144;2023-11-21T08:55:19;11.30;97.20
2653;DHT22;1336;48.692;9.144;2023-11-21T08:56:12;11.30;97.20
2653;DHT22;1336;48.692;9.144;2023-11-21T08:57:03;11.40;97.20
2653;DHT22;1336;48.692;9.144;2023-11-21T08:57:55;11.40;97.20
2653;DHT22;1336;48.692;9.144;2023-11-21T08:58:49;11.40;97.20
2653;DHT22;1336;48.692;9.144;2023-11-21T08:59:41;11.40;97.20
2653;DHT22;1336;48.692;9.144;2023-11-21T09:00:32;11.50;97.20
2653;DHT22;1336;48.692;9.144;2023-11-21T09:01:24;11.50;97.20
2653;DHT22;1336;48.692;9.144;2023-11-21T09:02:15;11.50;97.20
2653;DHT22;1336;48.692;9.144;2023-11-21T09:03:07;11.50;97.20
2653;DHT22;1336;48.692;9.144;2023-11-21T09:03:59;11.60;97.20
2653;DHT22;1336;48.692;9.144;2023-11-21T09:04:49;11.60;97.20
2653;DHT22;1336;48.692;9.144;2023-11-21T09:05:42;11.60;97.20
2653;DHT22;1336;48.692;9.144;2023-11-21T09:06:35;11.60;97.20
2653;DHT22;1336;48.692;9.144;2023-11-21T09:07:25;11.70;97.20
2653;DHT22;1336;48.692;9.144;2023-11-21T09:08:17;11.70;97.20
2653;DHT22;1336;48.692;9.144;2023-11-21T09:09:08;11.70;97.20
2653;DHT22;1336;48.692;9.144;2023-11-21T09:10:00;11.80;97.20
2653;DHT22;1336;48.692;9.144;2023-11-21T09:10:51;11.80;97.20
2653;DHT22;1336;48.692;9.144;2023-11-21T09:11:42;11.80;97.20
2653;DHT22;1336;48.692;9.144;2023-11-21T09:12:35;11.80;97.20
2653;DHT22;1336;48.692;9.144;2023-11-21T09:13:26;11.80;97.20
2653;DHT22;1336;48.692;9.144;2023-11-21T09:14:17;11.80;97.20
2653;DHT22;1336;48.692;9.144;2023-11-21T09:15:09;11.80;97.20
2653;DHT22;1336;48.692;9.144;2023-11-21T09:16:01;11.80;97.20
2653;DHT22;1336;48.692;9.144;2023-11-21T09:16:53;11.90;97.20
2653;DHT22;1336;48.692;9.144;2023-11-21T09:17:44;11.90;97.20
2653;DHT22;1336;48.692;9.144;2023-11-21T09:18:35;11.90;97.20
2653;DHT22;1336;48.692;9.144;2023-11-21T09:19:26;11.90;97.20
2653;DHT22;1336;48.692;9.144;2023-11-21T09:20:17;11.90;97.20
2653;DHT22;1336;48.692;9.144;2023-11-21T09:21:08;11.90;97.20
2653;DHT22;1336;48.692;9.144;2023-11-21T09:22:01;11.90;97.20
2653;DHT22;1336;48.692;9.144;2023-11-21T09:22:52;11.90;97.20
2653;DHT22;1336;48.692;9.144;2023-11-21T09:23:44;11.90;97.20
2653;DHT22;1336;48.692;9.144;2023-11-21T09:24:36;12.00;97.20
2653;DHT22;1336;48.692;9.144;2023-11-21T09:25:28;11.90;97.20
2653;DHT22;1336;48.692;9.144;2023-11-21T09:26:19;11.90;97.20
2653;DHT22;1336;48.692;9.144;2023-11-21T09:27:11;11.90;97.20
2653;DHT22;1336;48.692;9.144;2023-11-21T09:28:01;11.90;97.20
2653;DHT22;1336;48.692;9.144;2023-11-21T09:28:52;12.00;97.20
2653;DHT22;1336;48.692;9.144;2023-11-21T09:29:44;12.00;97.20
2653;DHT22;1336;48.692;9.144;2023-11-21T09:30:35;12.10;97.20
2653;DHT22;1336;48.692;9.144;2023-11-21T09:31:26;12.10;97.20
2653;DHT22;1336;48.692;9.144;2023-11-21T09:32:18;12.20;97.20
2653;DHT22;1336;48.692;9.144;2023-11-21T09:33:09;12.30;97.20
2653;DHT22;1336;48.692;9.144;2023-11-21T09:34:01;12.30;97.20
2653;DHT22;1336;48.692;9.144;2023-11-21T09:34:52;12.30;97.20
2653;DHT22;1336;48.692;9.144;2023-11-21T09:35:45;12.30;97.20
2653;DHT22;1336;48.692;9.144;2023-11-21T09:36:38;12.30;97.20
2653;DHT22;1336;48.692;9.144;2023-11-21T09:37:31;12.40;97.20
2653;DHT22;1336;48.692;9.144;2023-11-21T09:38:24;12.40;97.20
2653;DHT22;1336;48.692;9.144;2023-11-21T09:39:15;12.40;97.20
2653;DHT22;1336;48.692;9.144;2023-11-21T09:40:11;12.40;97.20
2653;DHT22;1336;48.692;9.144;2023-11-21T09:41:04;12.50;97.20
2653;DHT22;1336;48.692;9.144;2023-11-21T09:42:04;12.50;97.20
2653;DHT22;1336;48.692;9.144;2023-11-21T09:42:56;12.50;97.20
2653;DHT22;1336;48.692;9.144;2023-11-21T09:43:51;12.50;97.20
2653;DHT22;1336;48.692;9.144;2023-11-21T09:44:48;12.60;97.20
2653;DHT22;1336;48.692;9.144;2023-11-21T09:45:45;12.60;97.20
2653;DHT22;1336;48.692;9.144;2023-11-21T09:46:37;12.50;97.20
2653;DHT22;1336;48.692;9.144;2023-11-21T09:47:30;12.60;97.20
2653;DHT22;1336;48.692;9.144;2023-11-21T09:48:24;12.60;97.20
2653;DHT22;1336;48.692;9.144;2023-11-21T09:49:18;12.60;97.20
2653;DHT22;1336;48.692;9.144;2023-11-21T09:50:16;12.60;97.20
2653;DHT22;1336;48.692;9.144;2023-11-21T09:51:09;12.70;97.20
2653;DHT22;1336;48.692;9.144;2023-11-21T09:52:01;12.70;97.20
2653;DHT22;1336;48.692;9.144;2023-11-21T09:52:58;12.70;97.20
2653;DHT22;1336;48.692;9.144;2023-11-21T09:53:53;12.70;97.20
2653;DHT22;1336;48.692;9.144;2023-11-21T09:54:45;12.70;97.20
2653;DHT22;1336;48.692;9.144;2023-11-21T09:55:38;12.70;97.20
2653;DHT22;1336;48.692;9.144;2023-11-21T09:56:32;12.80;97.20
2653;DHT22;1336;48.692;9.144;2023-11-21T09:57:24;12.80;97.20
2653;DHT22;1336;48.692;9.144;2023-11-21T09:58:15;12.80;97.20
2653;DHT22;1336;48.692;9.144;2023-11-21T09:59:06;12.80;97.20
2653;DHT22;1336;48.692;9.144;2023-11-21T10:00:01;12.80;97.20
2653;DHT22;1336;48.692;9.144;2023-11-21T10:00:58;12.80;97.20
2653;DHT22;1336;48.692;9.144;2023-11-21T10:01:51;12.80;97.20
2653;DHT22;1336;48.692;9.144;2023-11-21T10:02:42;12.90;97.20
2653;DHT22;1336;48.692;9.144;2023-11-21T10:03:35;12.90;97.20
2653;DHT22;1336;48.692;9.144;2023-11-21T10:04:28;12.90;97.20
2653;DHT22;1336;48.692;9.144;2023-11-21T10:05:19;12.90;97.20
2653;DHT22;1336;48.692;9.144;2023-11-21T10:06:13;12.90;97.20
2653;DHT22;1336;48.692;9.144;2023-11-21T10:07:06;12.90;97.20
2653;DHT22;1336;48.692;9.144;2023-11-21T10:08:01;12.90;97.20
2653;DHT22;1336;48.692;9.144;2023-11-21T10:08:51;12.80;97.20
2653;DHT22;1336;48.692;9.144;2023-11-21T10:09:44;12.80;97.20
2653;DHT22;1336;48.692;9.144;2023-11-21T10:10:35;12.80;97.20
2653;DHT22;1336;48.692;9.144;2023-11-21T10:11:27;12.80;97.20
2653;DHT22;1336;48.692;9.144;2023-11-21T10:12:20;12.80;97.20
2653;DHT22;1336;48.692;9.144;2023-11-21T10:13:13;12.80;97.20
2653;DHT22;1336;48.692;9.144;2023-11-21T10:14:08;12.80;97.20
2653;DHT22;1336;48.692;9.144;2023-11-21T10:15:02;12.80;97.20
2653;DHT22;1336;48.692;9.144;2023-11-21T10:15:56;12.80;97.20
2653;DHT22;1336;48.692;9.144;2023-11-21T10:16:49;12.80;97.20
2653;DHT22;1336;48.692;9.144;2023-11-21T10:17:41;12.80;97.20
2653;DHT22;1336;48.692;9.144;2023-11-21T10:18:35;12.80;97.20
2653;DHT22;1336;48.692;9.144;2023-11-21T10:19:30;12.80;97.20
2653;DHT22;1336;48.692;9.144;2023-11-21T10:20:23;12.70;97.20
2653;DHT22;1336;48.692;9.144;2023-11-21T10:21:15;12.70;97.20
2653;DHT22;1336;48.692;9.144;2023-11-21T10:22:07;12.70;97.20
2653;DHT22;1336;48.692;9.144;2023-11-21T10:23:01;12.70;97.20
2653;DHT22;1336;48.692;9.144;2023-11-21T10:23:54;12.60;97.20
2653;DHT22;1336;48.692;9.144;2023-11-21T10:24:46;12.60;97.20
2653;DHT22;1336;48.692;9.144;2023-11-21T10:25:37;12.60;97.20
2653;DHT22;1336;48.692;9.144;2023-11-21T10:26:28;12.60;97.20
2653;DHT22;1336;48.692;9.144;2023-11-21T10:27:22;12.60;97.20
2653;DHT22;1336;48.692;9.144;2023-11-21T10:28:13;12.50;97.20
2653;DHT22;1336;48.692;9.144;2023-11-21T10:29:04;12.50;97.20
2653;DHT22;1336;48.692;9.144;2023-11-21T10:29:56;12.50;97.20
2653;DHT22;1336;48.692;9.144;2023-11-21T10:30:46;12.50;97.20
2653;DHT22;1336;48.692;9.144;2023-11-21T10:31:38;12.50;97.20
2653;DHT22;1336;48.692;9.144;2023-11-21T10:32:30;12.50;97.20
2653;DHT22;1336;48.692;9.144;2023-11-21T10:33:27;12.50;97.20
2653;DHT22;1336;48.692;9.144;2023-11-21T10:34:20;12.40;97.20
2653;DHT22;1336;48.692;9.144;2023-11-21T10:35:11;12.40;97.20
2653;DHT22;1336;48.692;9.144;2023-11-21T10:36:03;12.40;97.20
2653;DHT22;1336;48.692;9.144;2023-11-21T10:36:54;12.40;97.20
2653;DHT22;1336;48.692;9.144;2023-11-21T10:38:01;12.40;97.20
2653;DHT22;1336;48.692;9.144;2023-11-21T10:38:53;12.30;97.20
2653;DHT22;1336;48.692;9.144;2023-11-21T10:39:44;12.30;97.20
2653;DHT22;1336;48.692;9.144;2023-11-21T10:40:38;12.30;97.20
2653;DHT22;1336;48.692;9.144;2023-11-21T10:41:30;12.30;97.20
2653;DHT22;1336;48.692;9.144;2023-11-21T10:42:21;12.30;97.20
2653;DHT22;1336;48.692;9.144;2023-11-21T10:43:15;12.30;97.20
2653;DHT22;1336;48.692;9.144;2023-11-21T10:44:06;12.30;97.20
2653;DHT22;1336;48.692;9.144;2023-11-21T10:44:59;12.30;97.20
2653;DHT22;1336;48.692;9.144;2023-11-21T10:45:51;12.20;97.20
2653;DHT22;1336;48.692;9.144;2023-11-21T10:46:42;12.20;97.20
2653;DHT22;1336;48.692;9.144;2023-11-21T10:47:34;12.20;97.20
2653;DHT22;1336;48.692;9.144;2023-11-21T10:48:26;12.20;97.20
2653;DHT22;1336;48.692;9.144;2023-11-21T10:49:18;12.20;97.20
2653;DHT22;1336;48.692;9.144;2023-11-21T10:50:10;12.20;97.20
2653;DHT22;1336;48.692;9.144;2023-11-21T10:51:06;12.20;97.20
2653;DHT22;1336;48.692;9.144;2023-11-21T10:51:59;12.10;97.20
2653;DHT22;1336;48.692;9.144;2023-11-21T10:52:51;12.10;97.20
2653;DHT22;1336;48.692;9.144;2023-11-21T10:53:43;12.00;97.20
2653;DHT22;1336;48.692;9.144;2023-11-21T10:54:37;12.00;97.20
2653;DHT22;1336;48.692;9.144;2023-11-21T10:55:28;11.90;97.20
2653;DHT22;1336;48.692;9.144;2023-11-21T10:56:19;11.90;97.20
2653;DHT22;1336;48.692;9.144;2023-11-21T10:57:17;11.90;97.20
2653;DHT22;1336;48.692;9.144;2023-11-21T10:58:10;11.90;97.20
2653;DHT22;1336;48.692;9.144;2023-11-21T10:59:02;11.90;97.20
2653;DHT22;1336;48.692;9.144;2023-11-21T10:59:54;11.90;97.20
2653;DHT22;1336;48.692;9.144;2023-11-21T11:00:46;11.90;97.20
2653;DHT22;1336;48.692;9.144;2023-11-21T11:01:38;11.90;97.20
2653;DHT22;1336;48.692;9.144;2023-11-21T11:02:29;11.80;97.20
2653;DHT22;1336;48.692;9.144;2023-11-21T11:03:22;11.80;97.20
2653;DHT22;1336;48.692;9.144;2023-11-21T11:04:14;11.80;97.20
2653;DHT22;1336;48.692;9.144;2023-11-21T11:05:07;11.80;97.20
2653;DHT22;1336;48.692;9.144;2023-11-21T11:06:02;11.80;97.20
2653;DHT22;1336;48.692;9.144;2023-11-21T11:06:56;11.80;97.20
2653;DHT22;1336;48.692;9.144;2023-11-21T11:07:49;11.80;97.20
2653;DHT22;1336;48.692;9.144;2023-11-21T11:08:44;11.80;97.20
2653;DHT22;1336;48.692;9.144;2023-11-21T11:09:36;11.80;97.20
2653;DHT22;1336;48.692;9.144;2023-11-21T11:10:27;11.80;97.20
2653;DHT22;1336;48.692;9.144;2023-11-21T11:11:19;11.80;97.20
2653;DHT22;1336;48.692;9.144;2023-11-21T11:12:10;11.80;97.20
2653;DHT22;1336;48.692;9.144;2023-11-21T11:13:02;11.80;97.20
2653;DHT22;1336;48.692;9.144;2023-11-21T11:13:54;11.80;97.20
2653;DHT22;1336;48.692;9.144;2023-11-21T11:14:45;11.80;97.20
2653;DHT22;1336;48.692;9.144;2023-11-21T11:15:36;11.90;97.20
2653;DHT22;1336;48.692;9.144;2023-11-21T11:16:28;11.90;97.20
2653;DHT22;1336;48.692;9.144;2023-11-21T11:17:19;11.90;97.20
2653;DHT22;1336;48.692;9.144;2023-11-21T11:18:11;11.90;97.20
2653;DHT22;1336;48.692;9.144;2023-11-21T11:19:04;11.90;97.20
2653;DHT22;1336;48.692;9.144;2023-11-21T11:19:54;11.90;97.20
2653;DHT22;1336;48.692;9.144;2023-11-21T11:20:48;11.80;97.20
2653;DHT22;1336;48.692;9.144;2023-11-21T11:21:48;11.90;97.20
2653;DHT22;1336;48.692;9.144;2023-11-21T11:22:44;11.90;97.20
2653;DHT22;1336;48.692;9.144;2023-11-21T11:23:53;11.90;97.20
2653;DHT22;1336;48.692;9.144;2023-11-21T11:25:07;11.90;97.20
2653;DHT22;1336;48.692;9.144;2023-11-21T11:26:12;11.90;97.20
2653;DHT22;1336;48.692;9.144;2023-11-21T11:27:14;12.00;97.20
2653;DHT22;1336;48.692;9.144;2023-11-21T11:28:08;12.00;97.20
2653;DHT22;1336;48.692;9.144;2023-11-21T11:29:08;12.00;97.20
2653;DHT22;1336;48.692;9.144;2023-11-21T11:30:11;12.00;97.20
2653;DHT22;1336;48.692;9.144;2023-11-21T11:31:14;12.00;97.20
2653;DHT22;1336;48.692;9.144;2023-11-21T11:32:16;12.00;97.20
2653;DHT22;1336;48.692;9.144;2023-11-21T11:33:18;12.00;97.20
2653;DHT22;1336;48.692;9.144;2023-11-21T11:34:17;12.00;97.20
2653;DHT22;1336;48.692;9.144;2023-11-21T11:35:17;11.90;97.20
2653;DHT22;1336;48.692;9.144;2023-11-21T11:36:15;11.90;97.20
2653;DHT22;1336;48.692;9.144;2023-11-21T11:37:09;11.90;97.20
2653;DHT22;1336;48.692;9.144;2023-11-21T11:38:01;11.90;97.20
2653;DHT22;1336;48.692;9.144;2023-11-21T11:38:53;11.90;97.20
2653;DHT22;1336;48.692;9.144;2023-11-21T11:39:46;11.90;97.20
2653;DHT22;1336;48.692;9.144;2023-11-21T11:40:40;11.90;97.20
2653;DHT22;1336;48.692;9.144;2023-11-21T11:41:31;11.90;97.20
2653;DHT22;1336;48.692;9.144;2023-11-21T11:42:26;12.00;97.20